sensor_id;sensor_type;location;lat;lon;timestamp;P1;durP1;ratioP1;P2;durP2;ratioP2
17854;SDS011;9053;53.358;6.382;2023-07-29T00:00:32;6.30;;;5.47;;
17854;SDS011;9053;53.358;6.382;2023-07-29T00:03:03;8.40;;;6.07;;
17854;SDS011;9053;53.358;6.382;2023-07-29T00:05:33;6.95;;;5.93;;
17854;SDS011;9053;53.358;6.382;2023-07-29T00:08:03;6.40;;;5.43;;
17854;SDS011;9053;53.358;6.382;2023-07-29T00:10:37;7.22;;;5.97;;
17854;SDS011;9053;53.358;6.382;2023-07-29T00:13:07;7.53;;;5.53;;
17854;SDS011;9053;53.358;6.382;2023-07-29T00:15:37;8.15;;;6.47;;
17854;SDS011;9053;53.358;6.382;2023-07-29T00:18:07;7.25;;;5.72;;
17854;SDS011;9053;53.358;6.382;2023-07-29T00:20:37;8.70;;;6.28;;
17854;SDS011;9053;53.358;6.382;2023-07-29T00:23:07;8.13;;;6.30;;
17854;SDS011;9053;53.358;6.382;2023-07-29T00:25:39;8.00;;;6.15;;
17854;SDS011;9053;53.358;6.382;2023-07-29T00:28:09;8.38;;;6.75;;
17854;SDS011;9053;53.358;6.382;2023-07-29T00:30:39;7.57;;;6.28;;
17854;SDS011;9053;53.358;6.382;2023-07-29T00:33:09;8.90;;;6.80;;
17854;SDS011;9053;53.358;6.382;2023-07-29T00:35:40;7.72;;;5.93;;
17854;SDS011;9053;53.358;6.382;2023-07-29T00:38:10;8.65;;;7.00;;
17854;SDS011;9053;53.358;6.382;2023-07-29T00:40:42;7.88;;;6.57;;
17854;SDS011;9053;53.358;6.382;2023-07-29T00:43:12;7.70;;;6.38;;
17854;SDS011;9053;53.358;6.382;2023-07-29T00:45:42;7.70;;;5.65;;
17854;SDS011;9053;53.358;6.382;2023-07-29T00:48:15;7.00;;;5.60;;
17854;SDS011;9053;53.358;6.382;2023-07-29T00:50:45;8.32;;;6.63;;
17854;SDS011;9053;53.358;6.382;2023-07-29T00:53:15;7.07;;;5.57;;
17854;SDS011;9053;53.358;6.382;2023-07-29T00:55:48;6.90;;;5.78;;
17854;SDS011;9053;53.358;6.382;2023-07-29T00:58:18;7.68;;;6.10;;
17854;SDS011;9053;53.358;6.382;2023-07-29T01:00:50;8.05;;;6.40;;
17854;SDS011;9053;53.358;6.382;2023-07-29T01:03:20;9.32;;;6.55;;
17854;SDS011;9053;53.358;6.382;2023-07-29T01:05:54;7.57;;;5.75;;
17854;SDS011;9053;53.358;6.382;2023-07-29T01:08:31;7.35;;;5.85;;
17854;SDS011;9053;53.358;6.382;2023-07-29T01:11:11;9.18;;;6.97;;
17854;SDS011;9053;53.358;6.382;2023-07-29T01:13:53;8.70;;;6.75;;
17854;SDS011;9053;53.358;6.382;2023-07-29T01:16:34;8.52;;;6.63;;
17854;SDS011;9053;53.358;6.382;2023-07-29T01:19:10;8.75;;;6.60;;
17854;SDS011;9053;53.358;6.382;2023-07-29T01:21:50;8.10;;;6.35;;
17854;SDS011;9053;53.358;6.382;2023-07-29T01:24:23;8.88;;;6.28;;
17854;SDS011;9053;53.358;6.382;2023-07-29T01:26:53;8.57;;;6.50;;
17854;SDS011;9053;53.358;6.382;2023-07-29T01:29:23;8.38;;;6.57;;
17854;SDS011;9053;53.358;6.382;2023-07-29T01:31:54;6.93;;;6.22;;
17854;SDS011;9053;53.358;6.382;2023-07-29T01:34:29;9.73;;;6.93;;
17854;SDS011;9053;53.358;6.382;2023-07-29T01:37:09;8.00;;;6.50;;
17854;SDS011;9053;53.358;6.382;2023-07-29T01:39:46;7.28;;;6.47;;
17854;SDS011;9053;53.358;6.382;2023-07-29T01:42:19;9.80;;;6.47;;
17854;SDS011;9053;53.358;6.382;2023-07-29T01:44:49;7.28;;;6.38;;
17854;SDS011;9053;53.358;6.382;2023-07-29T01:47:20;8.93;;;6.88;;
17854;SDS011;9053;53.358;6.382;2023-07-29T01:49:50;7.70;;;6.40;;
17854;SDS011;9053;53.358;6.382;2023-07-29T01:52:20;7.80;;;6.13;;
17854;SDS011;9053;53.358;6.382;2023-07-29T01:54:52;9.80;;;7.28;;
17854;SDS011;9053;53.358;6.382;2023-07-29T01:57:22;10.80;;;7.43;;
17854;SDS011;9053;53.358;6.382;2023-07-29T01:59:53;9.05;;;6.97;;
17854;SDS011;9053;53.358;6.382;2023-07-29T02:02:24;9.00;;;6.97;;
17854;SDS011;9053;53.358;6.382;2023-07-29T02:04:54;11.30;;;7.88;;
17854;SDS011;9053;53.358;6.382;2023-07-29T02:07:24;10.18;;;7.90;;
17854;SDS011;9053;53.358;6.382;2023-07-29T02:09:57;7.85;;;6.70;;
17854;SDS011;9053;53.358;6.382;2023-07-29T02:12:26;9.75;;;7.75;;
17854;SDS011;9053;53.358;6.382;2023-07-29T02:14:56;9.30;;;7.75;;
17854;SDS011;9053;53.358;6.382;2023-07-29T02:17:26;10.48;;;7.53;;
17854;SDS011;9053;53.358;6.382;2023-07-29T02:19:56;9.35;;;7.82;;
17854;SDS011;9053;53.358;6.382;2023-07-29T02:22:27;10.00;;;8.15;;
17854;SDS011;9053;53.358;6.382;2023-07-29T02:24:59;8.85;;;6.95;;
17854;SDS011;9053;53.358;6.382;2023-07-29T02:27:30;9.65;;;8.27;;
17854;SDS011;9053;53.358;6.382;2023-07-29T02:30:00;8.70;;;6.95;;
17854;SDS011;9053;53.358;6.382;2023-07-29T02:32:30;9.27;;;7.15;;
17854;SDS011;9053;53.358;6.382;2023-07-29T02:35:00;8.82;;;7.10;;
17854;SDS011;9053;53.358;6.382;2023-07-29T02:37:31;9.13;;;7.60;;
17854;SDS011;9053;53.358;6.382;2023-07-29T02:40:04;10.02;;;8.13;;
17854;SDS011;9053;53.358;6.382;2023-07-29T02:42:35;11.30;;;9.57;;
17854;SDS011;9053;53.358;6.382;2023-07-29T02:45:06;11.05;;;8.40;;
17854;SDS011;9053;53.358;6.382;2023-07-29T02:47:38;8.93;;;7.43;;
17854;SDS011;9053;53.358;6.382;2023-07-29T02:50:08;10.05;;;8.77;;
17854;SDS011;9053;53.358;6.382;2023-07-29T02:52:39;8.73;;;7.22;;
17854;SDS011;9053;53.358;6.382;2023-07-29T02:55:11;8.85;;;6.93;;
17854;SDS011;9053;53.358;6.382;2023-07-29T02:57:41;13.05;;;9.80;;
17854;SDS011;9053;53.358;6.382;2023-07-29T03:00:12;8.77;;;7.40;;
17854;SDS011;9053;53.358;6.382;2023-07-29T03:02:44;8.73;;;7.38;;
17854;SDS011;9053;53.358;6.382;2023-07-29T03:05:14;9.23;;;7.38;;
17854;SDS011;9053;53.358;6.382;2023-07-29T03:07:44;9.40;;;7.20;;
17854;SDS011;9053;53.358;6.382;2023-07-29T03:10:17;9.68;;;6.93;;
17854;SDS011;9053;53.358;6.382;2023-07-29T03:12:47;8.32;;;6.72;;
17854;SDS011;9053;53.358;6.382;2023-07-29T03:15:17;8.85;;;7.05;;
17854;SDS011;9053;53.358;6.382;2023-07-29T03:17:47;8.25;;;6.88;;
17854;SDS011;9053;53.358;6.382;2023-07-29T03:20:17;7.70;;;6.65;;
17854;SDS011;9053;53.358;6.382;2023-07-29T03:22:47;7.40;;;6.07;;
17854;SDS011;9053;53.358;6.382;2023-07-29T03:25:20;7.25;;;6.55;;
17854;SDS011;9053;53.358;6.382;2023-07-29T03:27:50;9.48;;;7.38;;
17854;SDS011;9053;53.358;6.382;2023-07-29T03:30:20;8.23;;;6.65;;
17854;SDS011;9053;53.358;6.382;2023-07-29T03:32:52;7.70;;;6.70;;
17854;SDS011;9053;53.358;6.382;2023-07-29T03:35:22;8.82;;;7.38;;
17854;SDS011;9053;53.358;6.382;2023-07-29T03:37:52;7.60;;;6.63;;
17854;SDS011;9053;53.358;6.382;2023-07-29T03:40:25;8.07;;;6.60;;
17854;SDS011;9053;53.358;6.382;2023-07-29T03:42:55;8.75;;;7.10;;
17854;SDS011;9053;53.358;6.382;2023-07-29T03:45:25;7.35;;;6.53;;
17854;SDS011;9053;53.358;6.382;2023-07-29T03:47:55;8.38;;;6.28;;
17854;SDS011;9053;53.358;6.382;2023-07-29T03:50:25;7.82;;;5.72;;
17854;SDS011;9053;53.358;6.382;2023-07-29T03:52:56;7.00;;;6.13;;
17854;SDS011;9053;53.358;6.382;2023-07-29T03:55:30;7.57;;;6.35;;
17854;SDS011;9053;53.358;6.382;2023-07-29T03:58:00;6.90;;;5.78;;
17854;SDS011;9053;53.358;6.382;2023-07-29T04:00:30;7.45;;;6.20;;
17854;SDS011;9053;53.358;6.382;2023-07-29T04:03:03;8.65;;;6.72;;
17854;SDS011;9053;53.358;6.382;2023-07-29T04:05:33;7.97;;;6.25;;
17854;SDS011;9053;53.358;6.382;2023-07-29T04:08:03;9.15;;;6.03;;
17854;SDS011;9053;53.358;6.382;2023-07-29T04:10:36;6.47;;;5.53;;
17854;SDS011;9053;53.358;6.382;2023-07-29T04:13:06;8.05;;;6.43;;
17854;SDS011;9053;53.358;6.382;2023-07-29T04:15:36;8.15;;;6.07;;
17854;SDS011;9053;53.358;6.382;2023-07-29T04:18:06;8.60;;;6.57;;
17854;SDS011;9053;53.358;6.382;2023-07-29T04:20:36;7.30;;;5.90;;
17854;SDS011;9053;53.358;6.382;2023-07-29T04:23:06;7.35;;;5.80;;
17854;SDS011;9053;53.358;6.382;2023-07-29T04:25:38;6.20;;;5.50;;
17854;SDS011;9053;53.358;6.382;2023-07-29T04:28:08;8.30;;;5.80;;
17854;SDS011;9053;53.358;6.382;2023-07-29T04:30:38;7.47;;;6.38;;
17854;SDS011;9053;53.358;6.382;2023-07-29T04:33:09;7.53;;;6.03;;
17854;SDS011;9053;53.358;6.382;2023-07-29T04:35:39;8.23;;;5.68;;
17854;SDS011;9053;53.358;6.382;2023-07-29T04:38:08;6.57;;;5.25;;
17854;SDS011;9053;53.358;6.382;2023-07-29T04:40:41;5.75;;;4.97;;
17854;SDS011;9053;53.358;6.382;2023-07-29T04:43:11;6.13;;;5.05;;
17854;SDS011;9053;53.358;6.382;2023-07-29T04:45:42;5.95;;;4.63;;
17854;SDS011;9053;53.358;6.382;2023-07-29T04:48:12;8.40;;;5.50;;
17854;SDS011;9053;53.358;6.382;2023-07-29T04:50:42;5.70;;;4.20;;
17854;SDS011;9053;53.358;6.382;2023-07-29T04:53:12;6.63;;;4.80;;
17854;SDS011;9053;53.358;6.382;2023-07-29T04:55:45;5.30;;;4.43;;
17854;SDS011;9053;53.358;6.382;2023-07-29T04:58:15;6.03;;;4.80;;
17854;SDS011;9053;53.358;6.382;2023-07-29T05:00:46;5.10;;;3.80;;
17854;SDS011;9053;53.358;6.382;2023-07-29T05:03:16;4.75;;;3.72;;
17854;SDS011;9053;53.358;6.382;2023-07-29T05:05:46;5.03;;;3.97;;
17854;SDS011;9053;53.358;6.382;2023-07-29T05:08:18;5.22;;;3.60;;
17854;SDS011;9053;53.358;6.382;2023-07-29T05:10:51;4.53;;;3.38;;
17854;SDS011;9053;53.358;6.382;2023-07-29T05:13:22;4.25;;;3.00;;
17854;SDS011;9053;53.358;6.382;2023-07-29T05:15:52;4.32;;;3.53;;
17854;SDS011;9053;53.358;6.382;2023-07-29T05:18:22;4.50;;;3.30;;
17854;SDS011;9053;53.358;6.382;2023-07-29T05:20:52;3.10;;;2.70;;
17854;SDS011;9053;53.358;6.382;2023-07-29T05:23:22;3.60;;;2.80;;
17854;SDS011;9053;53.358;6.382;2023-07-29T05:25:55;4.20;;;2.72;;
17854;SDS011;9053;53.358;6.382;2023-07-29T05:28:24;4.15;;;3.05;;
17854;SDS011;9053;53.358;6.382;2023-07-29T05:30:55;4.47;;;3.13;;
17854;SDS011;9053;53.358;6.382;2023-07-29T05:33:25;3.35;;;3.05;;
17854;SDS011;9053;53.358;6.382;2023-07-29T05:35:55;5.88;;;3.40;;
17854;SDS011;9053;53.358;6.382;2023-07-29T05:38:25;4.57;;;3.05;;
17854;SDS011;9053;53.358;6.382;2023-07-29T05:40:58;4.32;;;2.90;;
17854;SDS011;9053;53.358;6.382;2023-07-29T05:43:28;3.63;;;2.88;;
17854;SDS011;9053;53.358;6.382;2023-07-29T05:45:58;2.63;;;2.40;;
17854;SDS011;9053;53.358;6.382;2023-07-29T05:48:28;3.08;;;2.58;;
17854;SDS011;9053;53.358;6.382;2023-07-29T05:50:59;4.78;;;2.95;;
17854;SDS011;9053;53.358;6.382;2023-07-29T05:53:29;4.95;;;3.33;;
17854;SDS011;9053;53.358;6.382;2023-07-29T05:56:02;2.60;;;2.35;;
17854;SDS011;9053;53.358;6.382;2023-07-29T05:58:32;2.95;;;2.30;;
17854;SDS011;9053;53.358;6.382;2023-07-29T06:01:02;4.47;;;2.75;;
17854;SDS011;9053;53.358;6.382;2023-07-29T06:03:33;2.85;;;1.90;;
17854;SDS011;9053;53.358;6.382;2023-07-29T06:06:03;3.53;;;2.33;;
17854;SDS011;9053;53.358;6.382;2023-07-29T06:08:33;2.85;;;2.08;;
17854;SDS011;9053;53.358;6.382;2023-07-29T06:11:06;3.40;;;2.40;;
17854;SDS011;9053;53.358;6.382;2023-07-29T06:13:36;2.85;;;2.30;;
17854;SDS011;9053;53.358;6.382;2023-07-29T06:16:06;3.78;;;2.05;;
17854;SDS011;9053;53.358;6.382;2023-07-29T06:18:36;4.88;;;2.60;;
17854;SDS011;9053;53.358;6.382;2023-07-29T06:21:06;5.45;;;2.80;;
17854;SDS011;9053;53.358;6.382;2023-07-29T06:23:39;5.00;;;2.70;;
17854;SDS011;9053;53.358;6.382;2023-07-29T06:26:12;3.10;;;2.40;;
17854;SDS011;9053;53.358;6.382;2023-07-29T06:28:42;5.30;;;2.45;;
17854;SDS011;9053;53.358;6.382;2023-07-29T06:31:12;6.72;;;3.60;;
17854;SDS011;9053;53.358;6.382;2023-07-29T06:33:42;4.88;;;2.70;;
17854;SDS011;9053;53.358;6.382;2023-07-29T06:36:12;6.45;;;3.10;;
17854;SDS011;9053;53.358;6.382;2023-07-29T06:38:42;4.88;;;2.97;;
17854;SDS011;9053;53.358;6.382;2023-07-29T06:41:14;5.88;;;3.22;;
17854;SDS011;9053;53.358;6.382;2023-07-29T06:43:46;6.75;;;3.00;;
17854;SDS011;9053;53.358;6.382;2023-07-29T06:46:16;3.65;;;2.42;;
17854;SDS011;9053;53.358;6.382;2023-07-29T06:48:46;4.65;;;2.97;;
17854;SDS011;9053;53.358;6.382;2023-07-29T06:51:16;3.63;;;2.50;;
17854;SDS011;9053;53.358;6.382;2023-07-29T06:53:46;4.47;;;2.97;;
17854;SDS011;9053;53.358;6.382;2023-07-29T06:56:19;4.93;;;2.72;;
17854;SDS011;9053;53.358;6.382;2023-07-29T06:58:49;8.68;;;3.60;;
17854;SDS011;9053;53.358;6.382;2023-07-29T07:01:19;4.30;;;2.90;;
17854;SDS011;9053;53.358;6.382;2023-07-29T07:03:50;5.13;;;2.60;;
17854;SDS011;9053;53.358;6.382;2023-07-29T07:06:21;5.38;;;2.60;;
17854;SDS011;9053;53.358;6.382;2023-07-29T07:08:51;5.25;;;2.88;;
17854;SDS011;9053;53.358;6.382;2023-07-29T07:11:24;7.45;;;3.42;;
17854;SDS011;9053;53.358;6.382;2023-07-29T07:13:54;5.20;;;3.10;;
17854;SDS011;9053;53.358;6.382;2023-07-29T07:16:24;5.22;;;3.50;;
17854;SDS011;9053;53.358;6.382;2023-07-29T07:18:56;5.32;;;3.40;;
17854;SDS011;9053;53.358;6.382;2023-07-29T07:21:26;4.65;;;2.72;;
17854;SDS011;9053;53.358;6.382;2023-07-29T07:23:56;4.47;;;2.67;;
17854;SDS011;9053;53.358;6.382;2023-07-29T07:26:28;4.82;;;2.92;;
17854;SDS011;9053;53.358;6.382;2023-07-29T07:28:58;5.05;;;3.10;;
17854;SDS011;9053;53.358;6.382;2023-07-29T07:31:28;8.98;;;3.05;;
17854;SDS011;9053;53.358;6.382;2023-07-29T07:34:02;7.03;;;4.38;;
17854;SDS011;9053;53.358;6.382;2023-07-29T07:36:32;5.57;;;3.03;;
17854;SDS011;9053;53.358;6.382;2023-07-29T07:39:02;5.22;;;3.15;;
17854;SDS011;9053;53.358;6.382;2023-07-29T07:41:35;6.03;;;2.78;;
17854;SDS011;9053;53.358;6.382;2023-07-29T07:44:05;4.55;;;3.00;;
17854;SDS011;9053;53.358;6.382;2023-07-29T07:46:35;4.07;;;2.58;;
17854;SDS011;9053;53.358;6.382;2023-07-29T07:49:05;6.85;;;3.17;;
17854;SDS011;9053;53.358;6.382;2023-07-29T07:51:35;6.03;;;2.92;;
17854;SDS011;9053;53.358;6.382;2023-07-29T07:54:05;3.85;;;3.05;;
17854;SDS011;9053;53.358;6.382;2023-07-29T07:56:38;4.85;;;3.28;;
17854;SDS011;9053;53.358;6.382;2023-07-29T07:59:08;9.00;;;3.78;;
17854;SDS011;9053;53.358;6.382;2023-07-29T08:01:43;5.25;;;2.75;;
17854;SDS011;9053;53.358;6.382;2023-07-29T08:04:13;4.03;;;2.63;;
17854;SDS011;9053;53.358;6.382;2023-07-29T08:06:43;4.70;;;3.13;;
17854;SDS011;9053;53.358;6.382;2023-07-29T08:09:13;8.48;;;3.35;;
17854;SDS011;9053;53.358;6.382;2023-07-29T08:11:45;3.97;;;2.90;;
17854;SDS011;9053;53.358;6.382;2023-07-29T08:14:15;8.77;;;3.75;;
17854;SDS011;9053;53.358;6.382;2023-07-29T08:16:45;5.22;;;3.17;;
17854;SDS011;9053;53.358;6.382;2023-07-29T08:19:15;6.18;;;3.03;;
17854;SDS011;9053;53.358;6.382;2023-07-29T08:21:48;7.47;;;3.30;;
17854;SDS011;9053;53.358;6.382;2023-07-29T08:24:18;5.43;;;2.80;;
17854;SDS011;9053;53.358;6.382;2023-07-29T08:26:50;5.50;;;2.80;;
17854;SDS011;9053;53.358;6.382;2023-07-29T08:29:20;5.72;;;2.58;;
17854;SDS011;9053;53.358;6.382;2023-07-29T08:31:50;5.43;;;3.08;;
17854;SDS011;9053;53.358;6.382;2023-07-29T08:34:22;4.53;;;2.53;;
17854;SDS011;9053;53.358;6.382;2023-07-29T08:36:51;4.78;;;2.47;;
17854;SDS011;9053;53.358;6.382;2023-07-29T08:39:21;4.75;;;2.40;;
17854;SDS011;9053;53.358;6.382;2023-07-29T08:41:56;5.22;;;2.30;;
17854;SDS011;9053;53.358;6.382;2023-07-29T08:44:34;5.95;;;2.85;;
17854;SDS011;9053;53.358;6.382;2023-07-29T08:47:06;3.92;;;2.50;;
17854;SDS011;9053;53.358;6.382;2023-07-29T08:49:36;3.47;;;2.10;;
17854;SDS011;9053;53.358;6.382;2023-07-29T08:52:07;6.10;;;2.33;;
17854;SDS011;9053;53.358;6.382;2023-07-29T08:54:39;3.65;;;2.03;;
17854;SDS011;9053;53.358;6.382;2023-07-29T08:57:11;4.25;;;2.28;;
17854;SDS011;9053;53.358;6.382;2023-07-29T08:59:43;4.15;;;1.90;;
17854;SDS011;9053;53.358;6.382;2023-07-29T09:02:13;2.45;;;1.75;;
17854;SDS011;9053;53.358;6.382;2023-07-29T09:04:44;2.40;;;1.75;;
17854;SDS011;9053;53.358;6.382;2023-07-29T09:07:13;3.33;;;1.85;;
17854;SDS011;9053;53.358;6.382;2023-07-29T09:09:44;2.75;;;1.65;;
17854;SDS011;9053;53.358;6.382;2023-07-29T09:12:18;4.60;;;2.08;;
17854;SDS011;9053;53.358;6.382;2023-07-29T09:14:51;5.10;;;2.28;;
17854;SDS011;9053;53.358;6.382;2023-07-29T09:17:22;4.68;;;2.67;;
17854;SDS011;9053;53.358;6.382;2023-07-29T09:19:52;4.35;;;2.10;;
17854;SDS011;9053;53.358;6.382;2023-07-29T09:22:21;3.53;;;1.55;;
17854;SDS011;9053;53.358;6.382;2023-07-29T09:24:52;3.83;;;1.70;;
17854;SDS011;9053;53.358;6.382;2023-07-29T09:27:27;4.38;;;2.17;;
17854;SDS011;9053;53.358;6.382;2023-07-29T09:29:58;2.80;;;1.40;;
17854;SDS011;9053;53.358;6.382;2023-07-29T09:32:29;3.63;;;2.10;;
17854;SDS011;9053;53.358;6.382;2023-07-29T09:34:59;3.95;;;1.50;;
17854;SDS011;9053;53.358;6.382;2023-07-29T09:37:29;4.22;;;1.70;;
17854;SDS011;9053;53.358;6.382;2023-07-29T09:39:59;3.75;;;1.70;;
17854;SDS011;9053;53.358;6.382;2023-07-29T09:42:33;3.42;;;1.67;;
17854;SDS011;9053;53.358;6.382;2023-07-29T09:45:04;4.25;;;1.60;;
17854;SDS011;9053;53.358;6.382;2023-07-29T09:47:34;3.15;;;1.50;;
17854;SDS011;9053;53.358;6.382;2023-07-29T09:50:07;2.75;;;1.48;;
17854;SDS011;9053;53.358;6.382;2023-07-29T09:52:41;2.95;;;1.95;;
17854;SDS011;9053;53.358;6.382;2023-07-29T09:55:11;4.10;;;1.55;;
17854;SDS011;9053;53.358;6.382;2023-07-29T09:57:45;2.58;;;1.42;;
17854;SDS011;9053;53.358;6.382;2023-07-29T10:00:16;3.20;;;1.73;;
17854;SDS011;9053;53.358;6.382;2023-07-29T10:02:47;2.60;;;1.55;;
17854;SDS011;9053;53.358;6.382;2023-07-29T10:05:19;1.98;;;1.30;;
17854;SDS011;9053;53.358;6.382;2023-07-29T10:07:51;2.83;;;1.40;;
17854;SDS011;9053;53.358;6.382;2023-07-29T10:10:21;2.92;;;1.65;;
17854;SDS011;9053;53.358;6.382;2023-07-29T10:12:54;3.58;;;1.60;;
17854;SDS011;9053;53.358;6.382;2023-07-29T10:15:25;3.33;;;1.45;;
17854;SDS011;9053;53.358;6.382;2023-07-29T10:17:55;2.75;;;1.10;;
17854;SDS011;9053;53.358;6.382;2023-07-29T10:20:25;2.25;;;1.38;;
17854;SDS011;9053;53.358;6.382;2023-07-29T10:22:55;2.63;;;1.52;;
17854;SDS011;9053;53.358;6.382;2023-07-29T10:25:30;2.42;;;1.38;;
17854;SDS011;9053;53.358;6.382;2023-07-29T10:28:11;3.40;;;1.20;;
17854;SDS011;9053;53.358;6.382;2023-07-29T10:30:42;1.50;;;1.25;;
17854;SDS011;9053;53.358;6.382;2023-07-29T10:33:12;3.70;;;1.20;;
17854;SDS011;9053;53.358;6.382;2023-07-29T10:35:42;2.55;;;1.50;;
17854;SDS011;9053;53.358;6.382;2023-07-29T10:38:12;1.85;;;1.15;;
17854;SDS011;9053;53.358;6.382;2023-07-29T10:40:45;4.18;;;1.60;;
17854;SDS011;9053;53.358;6.382;2023-07-29T10:43:24;3.92;;;1.48;;
17854;SDS011;9053;53.358;6.382;2023-07-29T10:45:55;3.17;;;1.52;;
17854;SDS011;9053;53.358;6.382;2023-07-29T10:48:41;3.83;;;1.75;;
17854;SDS011;9053;53.358;6.382;2023-07-29T10:51:24;2.33;;;1.50;;
17854;SDS011;9053;53.358;6.382;2023-07-29T10:53:57;3.35;;;1.30;;
17854;SDS011;9053;53.358;6.382;2023-07-29T10:56:29;2.55;;;1.40;;
17854;SDS011;9053;53.358;6.382;2023-07-29T11:02:11;3.58;;;1.52;;
17854;SDS011;9053;53.358;6.382;2023-07-29T11:04:47;1.40;;;1.30;;
17854;SDS011;9053;53.358;6.382;2023-07-29T11:07:28;3.03;;;1.40;;
17854;SDS011;9053;53.358;6.382;2023-07-29T11:09:58;1.92;;;1.20;;
17854;SDS011;9053;53.358;6.382;2023-07-29T11:12:40;3.75;;;1.55;;
17854;SDS011;9053;53.358;6.382;2023-07-29T11:15:18;3.58;;;1.50;;
17854;SDS011;9053;53.358;6.382;2023-07-29T11:17:50;3.50;;;1.70;;
17854;SDS011;9053;53.358;6.382;2023-07-29T11:20:21;3.05;;;1.50;;
17854;SDS011;9053;53.358;6.382;2023-07-29T11:22:53;4.00;;;1.50;;
17854;SDS011;9053;53.358;6.382;2023-07-29T11:25:27;3.42;;;1.42;;
17854;SDS011;9053;53.358;6.382;2023-07-29T11:28:00;3.30;;;1.70;;
17854;SDS011;9053;53.358;6.382;2023-07-29T11:30:36;2.92;;;1.63;;
17854;SDS011;9053;53.358;6.382;2023-07-29T11:33:08;2.92;;;1.45;;
17854;SDS011;9053;53.358;6.382;2023-07-29T11:35:40;2.75;;;1.40;;
17854;SDS011;9053;53.358;6.382;2023-07-29T11:38:14;2.22;;;1.40;;
17854;SDS011;9053;53.358;6.382;2023-07-29T11:40:53;3.55;;;1.45;;
17854;SDS011;9053;53.358;6.382;2023-07-29T11:43:24;5.45;;;1.73;;
17854;SDS011;9053;53.358;6.382;2023-07-29T11:45:56;4.18;;;1.95;;
17854;SDS011;9053;53.358;6.382;2023-07-29T11:48:31;4.05;;;2.33;;
17854;SDS011;9053;53.358;6.382;2023-07-29T11:51:02;3.30;;;1.65;;
17854;SDS011;9053;53.358;6.382;2023-07-29T11:53:32;3.17;;;1.40;;
17854;SDS011;9053;53.358;6.382;2023-07-29T11:56:02;2.90;;;1.55;;
17854;SDS011;9053;53.358;6.382;2023-07-29T11:58:34;2.92;;;1.95;;
17854;SDS011;9053;53.358;6.382;2023-07-29T12:01:07;4.72;;;1.63;;
17854;SDS011;9053;53.358;6.382;2023-07-29T12:03:39;2.03;;;1.77;;
17854;SDS011;9053;53.358;6.382;2023-07-29T12:06:10;2.38;;;1.50;;
17854;SDS011;9053;53.358;6.382;2023-07-29T12:08:40;4.35;;;1.92;;
17854;SDS011;9053;53.358;6.382;2023-07-29T12:11:11;2.80;;;1.80;;
17854;SDS011;9053;53.358;6.382;2023-07-29T12:13:42;3.75;;;1.90;;
17854;SDS011;9053;53.358;6.382;2023-07-29T12:16:18;1.92;;;1.55;;
17854;SDS011;9053;53.358;6.382;2023-07-29T12:18:49;2.22;;;1.88;;
17854;SDS011;9053;53.358;6.382;2023-07-29T12:21:20;2.67;;;1.75;;
17854;SDS011;9053;53.358;6.382;2023-07-29T12:23:50;2.28;;;1.70;;
17854;SDS011;9053;53.358;6.382;2023-07-29T12:26:22;2.80;;;1.80;;
17854;SDS011;9053;53.358;6.382;2023-07-29T12:28:57;2.55;;;1.60;;
17854;SDS011;9053;53.358;6.382;2023-07-29T12:31:37;3.45;;;2.00;;
17854;SDS011;9053;53.358;6.382;2023-07-29T12:34:07;3.80;;;2.00;;
17854;SDS011;9053;53.358;6.382;2023-07-29T12:36:41;1.50;;;1.30;;
17854;SDS011;9053;53.358;6.382;2023-07-29T12:39:16;2.10;;;1.50;;
17854;SDS011;9053;53.358;6.382;2023-07-29T12:41:48;3.08;;;1.42;;
17854;SDS011;9053;53.358;6.382;2023-07-29T12:44:18;4.70;;;2.30;;
17854;SDS011;9053;53.358;6.382;2023-07-29T12:46:51;3.05;;;1.55;;
17854;SDS011;9053;53.358;6.382;2023-07-29T12:49:21;3.03;;;1.35;;
17854;SDS011;9053;53.358;6.382;2023-07-29T12:51:51;3.28;;;1.63;;
17854;SDS011;9053;53.358;6.382;2023-07-29T12:54:21;2.72;;;1.80;;
17854;SDS011;9053;53.358;6.382;2023-07-29T12:56:51;2.65;;;1.50;;
17854;SDS011;9053;53.358;6.382;2023-07-29T12:59:21;2.58;;;1.40;;
17854;SDS011;9053;53.358;6.382;2023-07-29T13:01:54;4.97;;;1.80;;
17854;SDS011;9053;53.358;6.382;2023-07-29T13:04:26;4.35;;;1.58;;
17854;SDS011;9053;53.358;6.382;2023-07-29T13:06:58;2.08;;;1.00;;
17854;SDS011;9053;53.358;6.382;2023-07-29T13:09:28;2.90;;;1.30;;
17854;SDS011;9053;53.358;6.382;2023-07-29T13:11:58;3.97;;;1.48;;
17854;SDS011;9053;53.358;6.382;2023-07-29T13:14:28;5.95;;;1.95;;
17854;SDS011;9053;53.358;6.382;2023-07-29T13:17:00;2.67;;;1.40;;
17854;SDS011;9053;53.358;6.382;2023-07-29T13:19:30;3.65;;;1.40;;
17854;SDS011;9053;53.358;6.382;2023-07-29T13:22:00;4.47;;;1.60;;
17854;SDS011;9053;53.358;6.382;2023-07-29T13:24:32;3.33;;;1.48;;
17854;SDS011;9053;53.358;6.382;2023-07-29T13:27:01;1.73;;;1.30;;
17854;SDS011;9053;53.358;6.382;2023-07-29T13:29:32;3.83;;;1.73;;
17854;SDS011;9053;53.358;6.382;2023-07-29T13:32:04;4.13;;;1.70;;
17854;SDS011;9053;53.358;6.382;2023-07-29T13:34:35;2.20;;;1.30;;
17854;SDS011;9053;53.358;6.382;2023-07-29T13:37:06;3.92;;;1.70;;
17854;SDS011;9053;53.358;6.382;2023-07-29T13:39:36;2.97;;;1.63;;
17854;SDS011;9053;53.358;6.382;2023-07-29T13:42:06;4.57;;;1.73;;
17854;SDS011;9053;53.358;6.382;2023-07-29T13:44:37;2.88;;;1.48;;
17854;SDS011;9053;53.358;6.382;2023-07-29T13:47:09;4.88;;;1.90;;
17854;SDS011;9053;53.358;6.382;2023-07-29T13:49:39;2.35;;;1.60;;
17854;SDS011;9053;53.358;6.382;2023-07-29T13:52:09;5.15;;;1.63;;
17854;SDS011;9053;53.358;6.382;2023-07-29T13:54:40;3.22;;;1.75;;
17854;SDS011;9053;53.358;6.382;2023-07-29T13:57:10;3.45;;;1.55;;
17854;SDS011;9053;53.358;6.382;2023-07-29T13:59:40;3.30;;;1.98;;
17854;SDS011;9053;53.358;6.382;2023-07-29T14:02:15;2.22;;;1.40;;
17854;SDS011;9053;53.358;6.382;2023-07-29T14:04:45;2.97;;;1.60;;
17854;SDS011;9053;53.358;6.382;2023-07-29T14:07:15;5.40;;;1.73;;
17854;SDS011;9053;53.358;6.382;2023-07-29T14:09:44;4.65;;;1.75;;
17854;SDS011;9053;53.358;6.382;2023-07-29T14:12:14;3.40;;;1.67;;
17854;SDS011;9053;53.358;6.382;2023-07-29T14:14:45;3.85;;;1.70;;
17854;SDS011;9053;53.358;6.382;2023-07-29T14:17:19;4.28;;;1.80;;
17854;SDS011;9053;53.358;6.382;2023-07-29T14:19:49;3.67;;;1.60;;
17854;SDS011;9053;53.358;6.382;2023-07-29T14:22:19;2.60;;;1.73;;
17854;SDS011;9053;53.358;6.382;2023-07-29T14:24:50;2.83;;;1.80;;
17854;SDS011;9053;53.358;6.382;2023-07-29T14:27:20;3.80;;;2.03;;
17854;SDS011;9053;53.358;6.382;2023-07-29T14:29:50;2.38;;;1.70;;
17854;SDS011;9053;53.358;6.382;2023-07-29T14:32:22;3.10;;;1.83;;
17854;SDS011;9053;53.358;6.382;2023-07-29T14:34:52;3.20;;;1.65;;
17854;SDS011;9053;53.358;6.382;2023-07-29T14:37:22;3.22;;;1.90;;
17854;SDS011;9053;53.358;6.382;2023-07-29T14:39:52;3.90;;;1.80;;
17854;SDS011;9053;53.358;6.382;2023-07-29T14:42:22;4.70;;;1.65;;
17854;SDS011;9053;53.358;6.382;2023-07-29T14:44:53;3.22;;;1.50;;
17854;SDS011;9053;53.358;6.382;2023-07-29T14:47:26;2.67;;;1.63;;
17854;SDS011;9053;53.358;6.382;2023-07-29T14:50:01;3.33;;;1.63;;
17854;SDS011;9053;53.358;6.382;2023-07-29T14:52:32;6.18;;;1.90;;
17854;SDS011;9053;53.358;6.382;2023-07-29T14:55:05;2.83;;;1.70;;
17854;SDS011;9053;53.358;6.382;2023-07-29T14:57:36;4.20;;;1.80;;
17854;SDS011;9053;53.358;6.382;2023-07-29T15:00:08;3.35;;;1.67;;
17854;SDS011;9053;53.358;6.382;2023-07-29T15:02:41;1.95;;;1.45;;
17854;SDS011;9053;53.358;6.382;2023-07-29T15:05:13;3.15;;;1.95;;
17854;SDS011;9053;53.358;6.382;2023-07-29T15:07:43;4.15;;;1.77;;
17854;SDS011;9053;53.358;6.382;2023-07-29T15:10:13;4.30;;;1.55;;
17854;SDS011;9053;53.358;6.382;2023-07-29T15:12:44;2.38;;;1.38;;
17854;SDS011;9053;53.358;6.382;2023-07-29T15:15:14;3.95;;;1.98;;
17854;SDS011;9053;53.358;6.382;2023-07-29T15:17:47;2.47;;;1.60;;
17854;SDS011;9053;53.358;6.382;2023-07-29T15:20:16;3.28;;;1.30;;
17854;SDS011;9053;53.358;6.382;2023-07-29T15:22:46;4.05;;;1.63;;
17854;SDS011;9053;53.358;6.382;2023-07-29T15:25:16;3.08;;;1.55;;
17854;SDS011;9053;53.358;6.382;2023-07-29T15:27:46;2.85;;;1.85;;